Terminal Aerodrome Forecast
Issued by NWS Burlington, VT

Home | Current Version | Previous Version | Text Only | Print | Product List | Glossary On
Versions: 1 2 3 4 5 6 7 8 9 10 11 12 13 14 15
000
FTUS41 KBTV 241100
TAFBTV
TAF
KBTV 241126Z 2412/2512 33015G25KT P6SM OVC045
     FM241500 33020G30KT P6SM BKN045
     FM242300 34010KT P6SM SCT050
     FM250100 33005KT P6SM SKC=

USA.gov is the U.S. government's official web portal to all federal, state and local government web resources and services.